Aérodrome :
LOGIN :

S'inscrire | Disclaimer

   EN    FR    IT 

 










Légende :    VFR   VFR Marginal   IFR   IFR Intensif   IFR Très Intensif
Visi : 
Plafond : 
>= 8 km
>= 3000ft
5 à 8 km
1000 à 3000 ft
1500m à 5 km
500 à 1000 ft
800 à 1500m
200 à 500 ft
< 800m
< 200 ft
Symboles :   Orages  Brouillard  Fortes neiges  Fortes précipitations  Vent > 20 kt
SIGMETs :   Divers  Orages  Givrage  Turbulence  Onde Orograph.  Cendres Volcan.






- Altitude de l'aérodrome : 1058 ft
- Code IATA : SCN


EDDR - Saarbrücken

DERNIER METAR :
  • 190620Z AUTO 20006KT 9999 SCT030 17/16 Q1014 TEMPO SHRA

METARs EXPIRÉS :
  • 190550Z AUTO 24004KT 200V010 9999 -RA BKN033 BKN048 17/16 Q1013 TEMPO SHRA
  • 190520Z AUTO 14003KT 9999 FEW022 17/16 Q1013 TEMPO SHRA
  • 190450Z AUTO VRB01KT 9999 SCT023 17/16 Q1012 TEMPO SHRA
  • 190420Z AUTO 16004KT 110V180 9999 FEW010 17/16 Q1012 TEMPO SHRA
  • 190350Z AUTO 22008KT 190V290 9999 -SHRA FEW028 FEW///TCU 17/16 Q1012 RESHRA TEMPO SHRA
  • 190320Z AUTO 33006KT 9999 SHRA FEW021 SCT048 FEW///TCU 17/16 Q1012
  • 190250Z AUTO 22009KT 9999 BKN012 BKN023 17/16 Q1014
  • 190220Z AUTO 22004KT 190V260 9999 FEW022 17/16 Q1012
  • 190150Z AUTO 22004KT 9999 SCT021 17/16 Q1012

TAF TAF EDDR
Valide du 19 à 06h jusqu'au 20 à 06h UTC


190500Z 1906/2006 34007KT 9999 SCT040
TEMPO 1906/1912 RA BKN014
PROB30
TEMPO 1908/1912 3000 TSRA BKN020CB
BECMG 1915/1917 05007KT



MET'MAP, la Météo Aéronautique d'un coup d'oeil ! - Copyright ORBIFLY Décembre 2007 - Disclaimer

ORBIFLY MET'MAP TEAM :

Programmation & Développement : Alexandra Zaïnal
Sur une idée originale de : Baudouin d'Aumeries
Soutien technique & logistique : Manuel Goepfert
Assistance : Marc-Olivier Méhu




SOURCES & CREDITS :

   NOAA